Mega Smeralda — ICIU — position and weather

sailwx.info

Track history (hours):
 
Tides and Currents Weather Stations Pressure Air Temp Water Temp Dewpoint Dewpoint Depression Visibility Wind Speed Wind Dir Waves Ship Positions

Mega Smeralda

Last reported at 2017-Jan-17 18:29 UTC. Time now 2017-Jan-17 19:08 UTC.
Position N 43°04' E 005°58'.

Length 171 m; draft 6.5 m.

Type: Passenger vessel. MMSI: 247228600.

Date/timePositionNaut miles runAvg speedWind from/ knotsBaromVisibWave heightAir tempDewpointWater temp
2017-Jan-17 18:29N 43°04' E 005°58'3 3.5
2017-Jan-17 17:32N 43°07' E 005°56'0 0.0
2017-Jan-17 16:32N 43°07' E 005°56'0 0.0
2017-Jan-17 15:32N 43°07' E 005°56'0 0.0
2017-Jan-17 14:32N 43°07' E 005°56'0 0.0
2017-Jan-17 13:32N 43°07' E 005°56'0 0.0
2017-Jan-17 12:32N 43°07' E 005°56'0 0.0
2017-Jan-17 11:32N 43°07' E 005°56'0 0.0
2017-Jan-17 10:32N 43°07' E 005°56'0 0.0
2017-Jan-17 09:32N 43°07' E 005°56'0 0.0
2017-Jan-17 08:32N 43°07' E 005°56'0 0.0
2017-Jan-17 07:32N 43°07' E 005°56'5714.3
2017-Jan-17 03:34N 43°20' E 007°11'2019.6
2017-Jan-17 02:34N 43°31' E 007°34'3919.4
2017-Jan-17 00:32N 43°37' E 008°27'1616.7
2017-Jan-16 23:33N 43°35' E 008°50'1716.5
2017-Jan-16 22:33N 43°23' E 009°05'1818.2
2017-Jan-16 21:33N 43°09' E 009°22'24 4.5
2017-Jan-16 16:10N 42°54' E 009°48'1015.7
2017-Jan-16 15:32N 42°60' E 009°58'1616.5
2017-Jan-16 14:33N 43°15' E 010°05'1616.5
2017-Jan-16 13:33N 43°31' E 010°13'4 4.4
2017-Jan-16 12:33N 43°33' E 010°18'0 0.1
2017-Jan-16 11:33N 43°33' E 010°18'1211.9
2017-Jan-16 10:33N 43°23' E 010°10'1818.5
2017-Jan-16 09:33N 43°06' E 010°01'8710.9
2017-Jan-16 01:33N 43°27' E 008°04'1818.3
2017-Jan-16 00:33N 43°23' E 007°40'1918.7
2017-Jan-15 23:33N 43°17' E 007°15'5817.2
2017-Jan-15 20:12N 43°04' E 005°58'3 4.6
2017-Jan-15 19:31N 43°07' E 005°56'0 0.0
2017-Jan-15 18:31N 43°07' E 005°56'0 0.0
2017-Jan-15 17:31N 43°07' E 005°56'0 0.0
2017-Jan-15 16:31N 43°07' E 005°56'0 0.0
2017-Jan-15 15:31N 43°07' E 005°56'0 0.0
2017-Jan-15 14:31N 43°07' E 005°56'0 0.0
2017-Jan-15 13:31N 43°07' E 005°56'0 0.0
2017-Jan-15 12:31N 43°07' E 005°56'0 0.0
2017-Jan-15 11:31N 43°07' E 005°56'0 0.0
2017-Jan-15 10:31N 43°07' E 005°56'0 0.0
2017-Jan-15 09:31N 43°07' E 005°56'0 0.0
2017-Jan-15 08:31N 43°07' E 005°56'0 0.0
2017-Jan-15 07:31N 43°07' E 005°56'4811.2
2017-Jan-15 03:12N 43°10' E 007°02'1116.6
2017-Jan-15 02:33N 43°16' E 007°15'1616.4
2017-Jan-15 01:34N 43°23' E 007°35'1717.0
2017-Jan-15 00:33N 43°27' E 007°57'4117.9
2017-Jan-14 22:17N 43°14' E 008°50'1317.2
2017-Jan-14 21:30N 43°10' E 009°08'1616.4
2017-Jan-14 20:33N 43°04' E 009°28'18 4.1
2017-Jan-14 16:09N 42°53' E 009°47'1017.4
2017-Jan-14 15:33N 43°00' E 009°57'1817.7
2017-Jan-14 14:34N 43°17' E 010°05'1716.5
2017-Jan-14 13:33N 43°32' E 010°15'2 2.2
2017-Jan-14 12:33N 43°33' E 010°18'0 0.2
2017-Jan-14 11:33N 43°33' E 010°18'1313.0
2017-Jan-14 10:33N 43°22' E 010°09'1918.0
2017-Jan-14 09:31N 43°04' E 010°00'12712.6
2017-Jan-13 23:23N 43°11' E 007°06'5015.8
2017-Jan-13 20:13N 43°05' E 005°58'3 4.2
2017-Jan-13 19:33N 43°07' E 005°56'0 0.0
2017-Jan-13 18:33N 43°07' E 005°56'0 0.0
2017-Jan-13 17:30N 43°07' E 005°56'0 0.0
2017-Jan-13 16:31N 43°07' E 005°56'0 0.0
2017-Jan-13 15:30N 43°07' E 005°56'0 0.0
2017-Jan-13 14:33N 43°07' E 005°56'0 0.0
2017-Jan-13 13:33N 43°07' E 005°56'0 0.0
2017-Jan-13 12:33N 43°07' E 005°56'0 0.0
2017-Jan-13 11:31N 43°07' E 005°56'0 0.0
2017-Jan-13 10:33N 43°07' E 005°56'0 0.0
2017-Jan-13 09:33N 43°07' E 005°56'0 0.0
2017-Jan-13 08:31N 43°07' E 005°56'0 0.0
2017-Jan-13 07:33N 43°07' E 005°56'0 0.0
2017-Jan-13 06:33N 43°07' E 005°56'5212.9
2017-Jan-13 02:31N 42°60' E 007°07'1818.0
2017-Jan-13 01:31N 43°02' E 007°31'7117.4
2017-Jan-12 21:28N 43°04' E 009°08'1516.6
2017-Jan-12 20:34N 43°03' E 009°28'154 6.3
2017-Jan-11 20:11N 43°04' E 005°58'3 4.7
2017-Jan-11 19:33N 43°07' E 005°56'0 0.0
2017-Jan-11 18:29N 43°07' E 005°56'0 0.0
2017-Jan-11 17:32N 43°07' E 005°56'0 0.0
2017-Jan-11 16:29N 43°07' E 005°56'0 0.0
2017-Jan-11 15:32N 43°07' E 005°56'0 0.0
2017-Jan-11 14:29N 43°07' E 005°56'0 0.0
2017-Jan-11 13:32N 43°07' E 005°56'0 0.0
2017-Jan-11 12:32N 43°07' E 005°56'0 0.0
2017-Jan-11 11:32N 43°07' E 005°56'0 0.0
2017-Jan-11 10:32N 43°07' E 005°56'0 0.0
2017-Jan-11 09:32N 43°07' E 005°56'0 0.0
2017-Jan-11 08:32N 43°07' E 005°56'0 0.0
2017-Jan-11 07:32N 43°07' E 005°56'0 0.0
2017-Jan-11 06:32N 43°07' E 005°56'4811.9
2017-Jan-11 02:30N 43°05' E 007°02'1617.1
2017-Jan-11 01:33N 43°09' E 007°23'1817.8
2017-Jan-11 00:33N 43°14' E 007°47'5918.5
2017-Jan-10 21:22N 43°03' E 009°06'1518.2
2017-Jan-10 20:34N 43°04' E 009°26'151 6.2
2017-Jan-09 20:20N 43°03' E 005°60'5 6.3
2017-Jan-09 19:34N 43°07' E 005°56'0 0.0
2017-Jan-09 18:34N 43°07' E 005°56'0 0.0
2017-Jan-09 17:32N 43°07' E 005°56'0 0.0
2017-Jan-09 16:29N 43°07' E 005°56'0 0.0
2017-Jan-09 15:32N 43°07' E 005°56'0 0.0
2017-Jan-09 14:32N 43°07' E 005°56'0 0.0
2017-Jan-09 13:32N 43°07' E 005°56'0 0.0
2017-Jan-09 12:32N 43°07' E 005°56'0 0.0
2017-Jan-09 11:32N 43°07' E 005°56'0 0.0
2017-Jan-09 10:32N 43°07' E 005°56'0 0.0
2017-Jan-09 09:32N 43°07' E 005°56'0 0.0
2017-Jan-09 08:32N 43°07' E 005°56'0 0.0
2017-Jan-09 07:32N 43°07' E 005°56'0 0.0
2017-Jan-09 06:32N 43°07' E 005°56'5312.8
2017-Jan-09 02:24N 42°59' E 007°07'1416.4
2017-Jan-09 01:33N 42°60' E 007°26'7417.1
2017-Jan-08 21:15N 43°04' E 009°06'1317.9
2017-Jan-08 20:30N 43°04' E 009°25'20 4.5
2017-Jan-08 16:07N 42°53' E 009°47'916.6
2017-Jan-08 15:33N 42°59' E 009°57'1716.6
2017-Jan-08 14:33N 43°15' E 010°04'1716.6
2017-Jan-08 13:33N 43°30' E 010°13'5 4.6
2017-Jan-08 12:33N 43°33' E 010°18'0 0.0
2017-Jan-08 11:33N 43°33' E 010°18'0 0.0
2017-Jan-08 10:33N 43°33' E 010°18'0 0.0
2017-Jan-08 09:30N 43°33' E 010°18'0 0.0
2017-Jan-08 08:33N 43°33' E 010°18'0 0.0
2017-Jan-08 07:33N 43°33' E 010°18'0 0.0
2017-Jan-08 06:33N 43°33' E 010°18'8 8.1
2017-Jan-08 05:34N 43°26' E 010°13'1717.0
2017-Jan-08 04:33N 43°09' E 010°08'  
Track history (hours):
 
Tides and Currents Weather Stations Pressure Air Temp Water Temp Dewpoint Dewpoint Depression Visibility Wind Speed Wind Dir Waves Ship Positions

Mega Smeralda

Last reported at 2017-Jan-17 18:29 UTC. Time now 2017-Jan-17 19:08 UTC.
Position N 43°04' E 005°58'.

Length 171 m; draft 6.5 m.

Type: Passenger vessel. MMSI: 247228600.

Date/timePositionNaut miles runAvg speedWind from/ knotsBaromVisibWave heightAir tempDewpointWater temp
2017-Jan-17 18:29N 43°04' E 005°58'3 3.5
2017-Jan-17 17:32N 43°07' E 005°56'0 0.0
2017-Jan-17 16:32N 43°07' E 005°56'0 0.0
2017-Jan-17 15:32N 43°07' E 005°56'0 0.0
2017-Jan-17 14:32N 43°07' E 005°56'0 0.0
2017-Jan-17 13:32N 43°07' E 005°56'0 0.0
2017-Jan-17 12:32N 43°07' E 005°56'0 0.0
2017-Jan-17 11:32N 43°07' E 005°56'0 0.0
2017-Jan-17 10:32N 43°07' E 005°56'0 0.0
2017-Jan-17 09:32N 43°07' E 005°56'0 0.0
2017-Jan-17 08:32N 43°07' E 005°56'0 0.0
2017-Jan-17 07:32N 43°07' E 005°56'5714.3
2017-Jan-17 03:34N 43°20' E 007°11'2019.6
2017-Jan-17 02:34N 43°31' E 007°34'3919.4
2017-Jan-17 00:32N 43°37' E 008°27'1616.7
2017-Jan-16 23:33N 43°35' E 008°50'1716.5
2017-Jan-16 22:33N 43°23' E 009°05'1818.2
2017-Jan-16 21:33N 43°09' E 009°22'24 4.5
2017-Jan-16 16:10N 42°54' E 009°48'1015.7
2017-Jan-16 15:32N 42°60' E 009°58'1616.5
2017-Jan-16 14:33N 43°15' E 010°05'1616.5
2017-Jan-16 13:33N 43°31' E 010°13'4 4.4
2017-Jan-16 12:33N 43°33' E 010°18'0 0.1
2017-Jan-16 11:33N 43°33' E 010°18'1211.9
2017-Jan-16 10:33N 43°23' E 010°10'1818.5
2017-Jan-16 09:33N 43°06' E 010°01'8710.9
2017-Jan-16 01:33N 43°27' E 008°04'1818.3
2017-Jan-16 00:33N 43°23' E 007°40'1918.7
2017-Jan-15 23:33N 43°17' E 007°15'5817.2
2017-Jan-15 20:12N 43°04' E 005°58'3 4.6
2017-Jan-15 19:31N 43°07' E 005°56'0 0.0
2017-Jan-15 18:31N 43°07' E 005°56'0 0.0
2017-Jan-15 17:31N 43°07' E 005°56'0 0.0
2017-Jan-15 16:31N 43°07' E 005°56'0 0.0
2017-Jan-15 15:31N 43°07' E 005°56'0 0.0
2017-Jan-15 14:31N 43°07' E 005°56'0 0.0
2017-Jan-15 13:31N 43°07' E 005°56'0 0.0
2017-Jan-15 12:31N 43°07' E 005°56'0 0.0
2017-Jan-15 11:31N 43°07' E 005°56'0 0.0
2017-Jan-15 10:31N 43°07' E 005°56'0 0.0
2017-Jan-15 09:31N 43°07' E 005°56'0 0.0
2017-Jan-15 08:31N 43°07' E 005°56'0 0.0
2017-Jan-15 07:31N 43°07' E 005°56'4811.2
2017-Jan-15 03:12N 43°10' E 007°02'1116.6
2017-Jan-15 02:33N 43°16' E 007°15'1616.4
2017-Jan-15 01:34N 43°23' E 007°35'1717.0
2017-Jan-15 00:33N 43°27' E 007°57'4117.9
2017-Jan-14 22:17N 43°14' E 008°50'1317.2
2017-Jan-14 21:30N 43°10' E 009°08'1616.4
2017-Jan-14 20:33N 43°04' E 009°28'18 4.1
2017-Jan-14 16:09N 42°53' E 009°47'1017.4
2017-Jan-14 15:33N 43°00' E 009°57'1817.7
2017-Jan-14 14:34N 43°17' E 010°05'1716.5
2017-Jan-14 13:33N 43°32' E 010°15'2 2.2
2017-Jan-14 12:33N 43°33' E 010°18'0 0.2
2017-Jan-14 11:33N 43°33' E 010°18'1313.0
2017-Jan-14 10:33N 43°22' E 010°09'1918.0
2017-Jan-14 09:31N 43°04' E 010°00'12712.6
2017-Jan-13 23:23N 43°11' E 007°06'5015.8
2017-Jan-13 20:13N 43°05' E 005°58'3 4.2
2017-Jan-13 19:33N 43°07' E 005°56'0 0.0
2017-Jan-13 18:33N 43°07' E 005°56'0 0.0
2017-Jan-13 17:30N 43°07' E 005°56'0 0.0
2017-Jan-13 16:31N 43°07' E 005°56'0 0.0
2017-Jan-13 15:30N 43°07' E 005°56'0 0.0
2017-Jan-13 14:33N 43°07' E 005°56'0 0.0
2017-Jan-13 13:33N 43°07' E 005°56'0 0.0
2017-Jan-13 12:33N 43°07' E 005°56'0 0.0
2017-Jan-13 11:31N 43°07' E 005°56'0 0.0
2017-Jan-13 10:33N 43°07' E 005°56'0 0.0
2017-Jan-13 09:33N 43°07' E 005°56'0 0.0
2017-Jan-13 08:31N 43°07' E 005°56'0 0.0
2017-Jan-13 07:33N 43°07' E 005°56'0 0.0
2017-Jan-13 06:33N 43°07' E 005°56'5212.9
2017-Jan-13 02:31N 42°60' E 007°07'1818.0
2017-Jan-13 01:31N 43°02' E 007°31'7117.4
2017-Jan-12 21:28N 43°04' E 009°08'1516.6
2017-Jan-12 20:34N 43°03' E 009°28'154 6.3
2017-Jan-11 20:11N 43°04' E 005°58'3 4.7
2017-Jan-11 19:33N 43°07' E 005°56'0 0.0
2017-Jan-11 18:29N 43°07' E 005°56'0 0.0
2017-Jan-11 17:32N 43°07' E 005°56'0 0.0
2017-Jan-11 16:29N 43°07' E 005°56'0 0.0
2017-Jan-11 15:32N 43°07' E 005°56'0 0.0
2017-Jan-11 14:29N 43°07' E 005°56'0 0.0
2017-Jan-11 13:32N 43°07' E 005°56'0 0.0
2017-Jan-11 12:32N 43°07' E 005°56'0 0.0
2017-Jan-11 11:32N 43°07' E 005°56'0 0.0
2017-Jan-11 10:32N 43°07' E 005°56'0 0.0
2017-Jan-11 09:32N 43°07' E 005°56'0 0.0
2017-Jan-11 08:32N 43°07' E 005°56'0 0.0
2017-Jan-11 07:32N 43°07' E 005°56'0 0.0
2017-Jan-11 06:32N 43°07' E 005°56'4811.9
2017-Jan-11 02:30N 43°05' E 007°02'1617.1
2017-Jan-11 01:33N 43°09' E 007°23'1817.8
2017-Jan-11 00:33N 43°14' E 007°47'5918.5
2017-Jan-10 21:22N 43°03' E 009°06'1518.2
2017-Jan-10 20:34N 43°04' E 009°26'151 6.2
2017-Jan-09 20:20N 43°03' E 005°60'5 6.3
2017-Jan-09 19:34N 43°07' E 005°56'0 0.0
2017-Jan-09 18:34N 43°07' E 005°56'0 0.0
2017-Jan-09 17:32N 43°07' E 005°56'0 0.0
2017-Jan-09 16:29N 43°07' E 005°56'0 0.0
2017-Jan-09 15:32N 43°07' E 005°56'0 0.0
2017-Jan-09 14:32N 43°07' E 005°56'0 0.0
2017-Jan-09 13:32N 43°07' E 005°56'0 0.0
2017-Jan-09 12:32N 43°07' E 005°56'0 0.0
2017-Jan-09 11:32N 43°07' E 005°56'0 0.0
2017-Jan-09 10:32N 43°07' E 005°56'0 0.0
2017-Jan-09 09:32N 43°07' E 005°56'0 0.0
2017-Jan-09 08:32N 43°07' E 005°56'0 0.0
2017-Jan-09 07:32N 43°07' E 005°56'0 0.0
2017-Jan-09 06:32N 43°07' E 005°56'5312.8
2017-Jan-09 02:24N 42°59' E 007°07'1416.4
2017-Jan-09 01:33N 42°60' E 007°26'7417.1
2017-Jan-08 21:15N 43°04' E 009°06'1317.9
2017-Jan-08 20:30N 43°04' E 009°25'20 4.5
2017-Jan-08 16:07N 42°53' E 009°47'916.6
2017-Jan-08 15:33N 42°59' E 009°57'1716.6
2017-Jan-08 14:33N 43°15' E 010°04'1716.6
2017-Jan-08 13:33N 43°30' E 010°13'5 4.6
2017-Jan-08 12:33N 43°33' E 010°18'0 0.0
2017-Jan-08 11:33N 43°33' E 010°18'0 0.0
2017-Jan-08 10:33N 43°33' E 010°18'0 0.0
2017-Jan-08 09:30N 43°33' E 010°18'0 0.0
2017-Jan-08 08:33N 43°33' E 010°18'0 0.0
2017-Jan-08 07:33N 43°33' E 010°18'0 0.0
2017-Jan-08 06:33N 43°33' E 010°18'8 8.1
2017-Jan-08 05:34N 43°26' E 010°13'1717.0
2017-Jan-08 04:33N 43°09' E 010°08'  

Dump ship's entire track history